TENO2: Tenkiller Lake

Data processed at Thu Jan 04 2018 23:31


All information presented herein is the property of the government of the United States of America and may be revised or deleted at any time without prior notice.
Dissemination of this information without the expressed written consent of the Public Affairs Office, Tulsa District U.S. Army Corps of Engineers is strictly prohibited.
These data are gathered electronically and, as presented, have not undergone any form of quality control. These data are not guaranteed to be valid or correct.
Go to home page.
Go to station list.

Upstream stations:

Downstream station:
Previous Day
Next Day
Current Day
    
SHEF ID:       TENO2     Tenkiller Lake
STATION TYPE:  Reservoir
Normal Pool:  Bottom =   594.50, Top =   632.00

               PRECIP PRECIP(A) ELEVATION   STORAGE   TW-ELEV    INFLOW   RELEASE  AIR-TEMP  WIND-DIRWIND-SPEED REL-HUMID SOLAR-RAD   VOLTAGE  BAT-LOAD
                   in        in        ft     ac-ft        ft       cfs       cfs         F       deg       mph         %      W/m2      volt      volt
              Ccp-Rev   Ccp-Rev   Ccp-Rev   Ccp-Rev   Ccp-Rev  Regi-Rev  Regi-Rev   Ccp-Rev   Ccp-Rev   Ccp-Rev   Ccp-Rev   Ccp-Rev   Ccp-Rev   Ccp-Rev
(US/Central)
01/02 00:00      0.00      0.00    627.52    612413    482.17        26         0     17.47    118.90      3.76     48.96      1.00     13.71     13.18
01/02 01:00      0.00      0.00    627.54    612653    482.12        22         0     16.38    149.60      0.92     58.73      1.00     13.71     13.18
01/02 02:00      0.00      0.00    627.53    612533    482.10        12         0     16.48    140.90      0.57     51.70      0.00     13.71     13.18
01/02 03:00      0.00      0.00    627.54    612653    482.10         2         0     16.48     93.40      2.00     50.79      0.00     13.71     13.18
01/02 04:00      0.00      0.00    627.55    612772    482.09        11         0     16.16    109.20      1.35     52.44      1.00     13.71     13.18
01/02 05:00      0.00      0.00    627.52    612413    482.08        20         0     16.36    123.30      1.09     50.73      0.00     13.71     13.18
01/02 06:00      0.00      0.00    627.54    612653    483.54        29       272     16.70    136.30      1.40     45.84      0.00     13.71     13.12
01/02 07:00      0.00      0.00    627.49    612054    486.97        94      3633     17.24    140.60      1.56     45.29      0.00     13.71     13.12
01/02 08:00      0.00      0.00    627.49    612054    486.96       266      3659     17.02    121.60      1.51     45.73      2.00     13.71     13.12
01/02 09:00      0.00      0.00    627.45    611575    486.91       674      3756     17.47    123.90      2.31     44.69     35.00     13.71     13.07
01/02 10:00      0.00      0.00    627.43    611335    487.01       718      3756     18.90    124.60      1.98     41.82    102.00     13.71     13.12
01/02 11:00      0.00      0.00    627.42    611215    486.58       763      3538     19.78    125.80      1.68     44.02    127.00     13.72     13.12
01/02 12:00      0.00      0.00    627.43    611335    482.52       698       544     21.43    132.90      1.69     31.44    312.00     13.70     13.12
01/02 13:00      0.00      0.00    627.42    611215    482.17       526         0     22.53    202.60      0.67     29.55    219.00     13.71     13.12
01/02 14:00      0.00      0.00    627.43    611335    482.12       109         0     22.96    137.00      1.80     33.09    191.00     13.71     13.12
01/02 15:00      0.00      0.00    627.42    611215    482.10        54         0     23.85    121.50      4.48     34.37    210.00     13.71     13.12
01/02 16:00      0.00      0.00    627.40    610976    483.60       394         0     24.71    163.80      1.09     29.24    117.00     13.71     13.12
01/02 17:00      0.00      0.00    627.39    610856    486.94       399      3728     25.38    237.00      1.64     38.71     58.00     13.71     13.12
01/02 18:00      0.00      0.00    627.38    610736    486.92       405      3728     24.60    233.00      1.36     50.48      3.00     13.71     13.18
01/02 19:00      0.00      0.00    627.34    610257    486.93       410      3853     23.72    233.80      1.52     39.98      0.00     13.71     13.12
01/02 20:00      0.00      0.00    627.33    610137    485.10       410      1757     24.06    230.30      1.01     49.02      0.00     13.71     13.18
01/02 21:00      0.00      0.00    627.34    610257    482.35        17       272     21.43    229.40      0.89     56.29      0.00     13.71     13.12
01/02 22:00      0.00      0.00    627.33    610137    482.16        11         0     18.57    178.30      0.31     72.95      0.00     13.71     13.12
01/02 23:00      0.00      0.00    627.34    610257    482.12         6         0     16.36    160.50      0.37     80.39      1.00     13.71     13.12